Time;durP1;ratioP1;P1;durP2;ratioP2;P2;SDS_P1;SDS_P2;PMS_P1;PMS_P2;Temp;Humidity;BMP_temperature;BMP_pressure;BME280_temperature;BME280_humidity;BME280_pressure;Samples;Min_cycle;Max_cycle;Signal;HPM_P1;HPM_P2
2021/12/24 00:01:00;;;;;;;;;0.00;0.00;;;;;-146.25;100.00;57879.81;5078183;27;45374;-77
2021/12/24 00:03:26;;;;;;;;;0.00;0.00;;;;;-146.25;100.00;57879.81;5075937;28;45565;-75
2021/12/24 00:05:52;;;;;;;;;0.00;0.00;;;;;-146.25;100.00;57879.81;5078517;27;45434;-76
2021/12/24 00:08:17;;;;;;;;;1.00;1.00;;;;;-146.25;100.00;57879.81;5078371;27;46208;-73
2021/12/24 00:10:46;;;;;;;;;1.00;1.00;;;;;-146.25;100.00;57879.81;5078195;28;45472;-74
2021/12/24 00:13:14;;;;;;;;;0.33;0.33;;;;;-146.25;100.00;57879.81;5078539;28;45397;-76
2021/12/24 00:18:54;;;;;;;;;0.33;0.33;;;;;-146.25;100.00;57879.81;5064625;27;45981;-77
2021/12/24 00:37:32;;;;;;;;;1.00;1.00;;;;;-146.25;100.00;57879.81;5078373;28;45562;-73
2021/12/24 00:42:26;;;;;;;;;0.33;0.33;;;;;-146.25;100.00;57879.81;5075349;28;45458;-73
2021/12/24 00:44:51;;;;;;;;;1.00;0.00;;;;;-146.25;100.00;57879.81;5078078;28;45361;-73
2021/12/24 00:47:17;;;;;;;;;1.00;1.00;;;;;-146.25;100.00;57879.81;5078461;27;45404;-73
2021/12/24 00:49:43;;;;;;;;;1.00;1.00;;;;;-146.25;100.00;57879.81;5077684;27;45433;-73
2021/12/24 00:52:23;;;;;;;;;1.00;0.00;;;;;-146.25;100.00;57879.81;5077742;27;45463;-73
2021/12/24 00:55:06;;;;;;;;;0.67;0.00;;;;;-146.25;100.00;57879.81;5075791;28;45426;-73
2021/12/24 00:57:34;;;;;;;;;2.00;1.00;;;;;-146.25;100.00;57879.81;5076208;28;45565;-73
2021/12/24 00:59:59;;;;;;;;;1.00;0.33;;;;;-146.25;100.00;57879.81;5077602;27;46273;-77
2021/12/24 01:02:25;;;;;;;;;0.67;0.67;;;;;-146.25;100.00;57879.81;5074824;28;45560;-72
2021/12/24 01:04:50;;;;;;;;;0.00;0.00;;;;;-146.25;100.00;57879.81;5077607;27;45453;-74
2021/12/24 01:07:16;;;;;;;;;0.00;0.00;;;;;-146.25;100.00;57879.81;5078121;27;45413;-74
2021/12/24 01:09:43;;;;;;;;;0.00;0.00;;;;;-146.25;100.00;57879.81;5077504;27;45492;-73
2021/12/24 01:12:09;;;;;;;;;0.67;0.67;;;;;-146.25;100.00;57879.81;5077505;27;45504;-72
2021/12/24 01:14:35;;;;;;;;;1.00;0.00;;;;;-146.25;100.00;57879.81;5077613;27;45614;-73
2021/12/24 01:17:14;;;;;;;;;1.00;0.00;;;;;-146.25;100.00;57879.81;5077524;27;45817;-74
2021/12/24 01:19:43;;;;;;;;;1.00;1.00;;;;;-146.25;100.00;57879.81;5077155;27;45499;-74
2021/12/24 01:25:07;;;;;;;;;0.00;0.00;;;;;-146.25;100.00;57879.81;5075738;28;45506;-73
2021/12/24 01:37:49;;;;;;;;;1.00;1.00;;;;;-146.25;100.00;57879.81;5076948;27;46053;-77
2021/12/24 01:38:24;;;;;;;;;1.00;1.00;;;;;-146.25;100.00;57879.81;5076465;28;45461;-73
2021/12/24 01:41:06;;;;;;;;;0.00;0.00;;;;;-146.25;100.00;57879.81;5076059;28;45393;-73
2021/12/24 01:43:32;;;;;;;;;1.00;0.00;;;;;-146.25;100.00;57879.81;5078522;27;45568;-76
2021/12/24 01:45:59;;;;;;;;;1.00;1.00;;;;;-146.25;100.00;57879.81;5078680;27;45630;-76
2021/12/24 01:48:25;;;;;;;;;1.00;1.00;;;;;-146.25;100.00;57879.81;5078872;27;45378;-73
2021/12/24 01:50:52;;;;;;;;;1.67;1.33;;;;;-146.25;100.00;57879.81;5078641;28;46009;-74
2021/12/24 01:53:21;;;;;;;;;0.00;0.00;;;;;-146.25;100.00;57879.81;5079018;27;45360;-73
2021/12/24 01:55:50;;;;;;;;;1.00;1.00;;;;;-146.25;100.00;57879.81;5078894;27;45447;-77
2021/12/24 01:58:24;;;;;;;;;1.67;1.67;;;;;-146.25;100.00;57879.81;5079028;27;45489;-73
2021/12/24 02:00:52;;;;;;;;;2.00;0.00;;;;;-146.25;100.00;57879.81;5078563;27;45326;-73
2021/12/24 02:03:19;;;;;;;;;1.00;1.00;;;;;-146.25;100.00;57879.81;5078608;27;45464;-74
2021/12/24 02:05:45;;;;;;;;;2.67;1.67;;;;;-146.25;100.00;57879.81;5077376;27;45430;-73
2021/12/24 02:08:12;;;;;;;;;3.00;2.67;;;;;-146.25;100.00;57879.81;5078518;28;45284;-77
2021/12/24 02:10:38;;;;;;;;;1.00;1.00;;;;;-146.25;100.00;57879.81;5078368;27;45335;-74
2021/12/24 02:13:04;;;;;;;;;1.00;0.33;;;;;-146.25;100.00;57879.81;5078294;27;45382;-72
2021/12/24 02:15:43;;;;;;;;;0.00;0.00;;;;;-146.25;100.00;57879.81;5078307;28;45444;-73
2021/12/24 02:29:07;;;;;;;;;1.00;1.00;;;;;-146.25;100.00;57879.81;5078289;28;45397;-73
2021/12/24 02:31:34;;;;;;;;;2.00;1.00;;;;;-146.25;100.00;57879.81;5077741;27;45481;-77
2021/12/24 02:33:59;;;;;;;;;2.00;2.00;;;;;-146.25;100.00;57879.81;5077788;28;45391;-77
2021/12/24 02:36:27;;;;;;;;;3.00;2.00;;;;;-146.25;100.00;57879.81;5078052;27;45358;-73
2021/12/24 02:38:53;;;;;;;;;2.00;1.00;;;;;-146.25;100.00;57879.81;5078477;27;45470;-74
2021/12/24 02:41:20;;;;;;;;;7.00;5.33;;;;;-146.25;100.00;57879.81;5077731;27;45399;-76
2021/12/24 02:43:47;;;;;;;;;8.00;8.00;;;;;-146.25;100.00;57879.81;5077886;27;46216;-77
2021/12/24 02:46:24;;;;;;;;;3.00;2.00;;;;;-146.25;100.00;57879.81;5077754;27;45353;-73
2021/12/24 02:54:04;;;;;;;;;7.00;6.00;;;;;-146.25;100.00;57879.81;5077678;28;45512;-77
2021/12/24 02:56:35;;;;;;;;;3.00;2.67;;;;;-146.25;100.00;57879.81;5077938;28;45315;-74
2021/12/24 02:59:04;;;;;;;;;6.00;5.00;;;;;-146.25;100.00;57879.81;5077956;27;45464;-74
2021/12/24 03:01:34;;;;;;;;;3.00;3.00;;;;;-146.25;100.00;57879.81;5077311;27;45408;-75
2021/12/24 03:04:01;;;;;;;;;4.00;3.00;;;;;-146.25;100.00;57879.81;5077508;28;45314;-74
2021/12/24 03:06:29;;;;;;;;;3.67;3.00;;;;;-146.25;100.00;57879.81;5077589;27;45326;-74
2021/12/24 03:08:55;;;;;;;;;1.33;1.33;;;;;-146.25;100.00;57879.81;5078153;27;45172;-77
2021/12/24 03:11:21;;;;;;;;;1.00;1.00;;;;;-146.25;100.00;57879.81;5077718;27;45570;-77
2021/12/24 03:13:48;;;;;;;;;1.67;1.00;;;;;-146.25;100.00;57879.81;5077359;28;45356;-74
2021/12/24 03:16:14;;;;;;;;;2.00;1.00;;;;;-146.25;100.00;57879.81;5077220;27;45468;-77
2021/12/24 03:18:41;;;;;;;;;1.00;0.67;;;;;-146.25;100.00;57879.81;5077416;28;45429;-77
2021/12/24 03:21:20;;;;;;;;;1.00;1.00;;;;;-146.25;100.00;57879.81;5077235;28;46200;-73
2021/12/24 03:26:35;;;;;;;;;1.00;1.00;;;;;-146.25;100.00;57879.81;5077082;28;45357;-74
2021/12/24 03:29:01;;;;;;;;;1.00;1.00;;;;;-146.25;100.00;57879.81;5076300;28;45819;-73
2021/12/24 03:31:27;;;;;;;;;1.00;1.00;;;;;-146.25;100.00;57879.81;5076931;27;45374;-74
2021/12/24 03:33:53;;;;;;;;;1.00;1.00;;;;;-146.25;100.00;57879.81;5077285;28;45400;-76
2021/12/24 03:36:21;;;;;;;;;1.00;0.33;;;;;-146.25;100.00;57879.81;5077302;28;45164;-77
2021/12/24 03:38:47;;;;;;;;;1.33;1.00;;;;;-146.25;100.00;57879.81;5076066;28;45494;-74
2021/12/24 03:41:14;;;;;;;;;1.00;1.00;;;;;-146.25;100.00;57879.81;5075541;28;45397;-74
2021/12/24 03:43:39;;;;;;;;;0.33;0.33;;;;;-146.25;100.00;57879.81;5077049;27;45433;-74
2021/12/24 03:46:09;;;;;;;;;2.00;2.00;;;;;-146.25;100.00;57879.81;5076979;27;45437;-77
2021/12/24 03:48:46;;;;;;;;;4.00;4.00;;;;;-146.25;100.00;57879.81;5077269;27;45582;-78
2021/12/24 03:56:31;;;;;;;;;6.33;5.33;;;;;-146.25;100.00;57879.81;5076707;28;45554;-76
2021/12/24 03:58:56;;;;;;;;;4.00;4.00;;;;;-146.25;100.00;57879.81;5077233;27;45382;-74
2021/12/24 04:01:22;;;;;;;;;3.00;3.00;;;;;-146.25;100.00;57879.81;5076352;28;45373;-74
2021/12/24 04:03:47;;;;;;;;;2.00;2.00;;;;;-146.25;100.00;57879.81;5076712;27;45505;-74
2021/12/24 04:06:13;;;;;;;;;1.33;1.33;;;;;-146.25;100.00;57879.81;5076940;28;45757;-76
2021/12/24 04:08:39;;;;;;;;;2.00;1.00;;;;;-146.25;100.00;57879.81;5077128;28;45515;-78
2021/12/24 04:11:05;;;;;;;;;2.00;1.00;;;;;-146.25;100.00;57879.81;5076637;27;46194;-73
2021/12/24 04:13:32;;;;;;;;;0.33;0.33;;;;;-146.25;100.00;57879.81;5076622;27;45530;-73
2021/12/24 04:15:58;;;;;;;;;1.67;1.67;;;;;-146.25;100.00;57879.81;5077009;27;45514;-74
2021/12/24 04:26:30;;;;;;;;;2.67;2.00;;;;;-146.25;100.00;57879.81;5076278;28;45489;-74
2021/12/24 04:28:57;;;;;;;;;6.33;5.33;;;;;-146.25;100.00;57879.81;5079080;27;45503;-74
2021/12/24 04:31:30;;;;;;;;;7.00;6.00;;;;;-146.25;100.00;57879.81;5079577;27;46314;-74
2021/12/24 04:33:59;;;;;;;;;3.00;3.00;;;;;-146.25;100.00;57879.81;5080084;28;45532;-74
2021/12/24 05:03:44;;;;;;;;;1.33;1.33;;;;;-146.25;100.00;57879.81;5079348;28;45476;-73
2021/12/24 05:06:29;;;;;;;;;1.00;1.00;;;;;-146.25;100.00;57879.81;5079012;27;45423;-77
2021/12/24 05:08:59;;;;;;;;;2.00;2.00;;;;;-146.25;100.00;57879.81;5079206;27;46172;-77
2021/12/24 05:11:25;;;;;;;;;20.75;17.00;;;;;-146.25;100.00;57879.81;5079387;27;45587;-77
2021/12/24 05:13:52;;;;;;;;;13.25;12.75;;;;;-146.25;100.00;57879.81;5079089;27;45381;-77
2021/12/24 05:21:32;;;;;;;;;3.33;3.00;;;;;-146.25;100.00;57879.81;5078938;27;45250;-77
2021/12/24 05:21:44;;;;;;;;;2.00;2.00;;;;;-146.25;100.00;57879.81;5079216;27;45407;-73
2021/12/24 05:24:15;;;;;;;;;6.00;5.00;;;;;-146.25;100.00;57879.81;5078842;27;46370;-73
2021/12/24 05:26:45;;;;;;;;;1.33;1.00;;;;;-146.25;100.00;57879.81;5079011;28;45517;-76
2021/12/24 05:29:13;;;;;;;;;1.67;1.67;;;;;-146.25;100.00;57879.81;5079258;27;45251;-76
2021/12/24 05:31:38;;;;;;;;;2.00;1.00;;;;;-146.25;100.00;57879.81;5079125;27;45375;-73
2021/12/24 05:34:04;;;;;;;;;2.00;1.00;;;;;-146.25;100.00;57879.81;5078758;27;45321;-73
2021/12/24 05:36:29;;;;;;;;;2.00;1.00;;;;;-146.25;100.00;57879.81;5079251;27;45470;-76
2021/12/24 05:38:56;;;;;;;;;1.67;1.67;;;;;-146.25;100.00;57879.81;5077205;28;45468;-77
2021/12/24 05:41:22;;;;;;;;;2.00;2.00;;;;;-146.25;100.00;57879.81;5078528;28;45323;-77
2021/12/24 05:43:49;;;;;;;;;2.00;1.00;;;;;-146.25;100.00;57879.81;5078758;27;46230;-74
2021/12/24 05:46:15;;;;;;;;;2.00;2.00;;;;;-146.25;100.00;57879.81;5078622;27;45681;-77
2021/12/24 05:48:40;;;;;;;;;1.00;1.00;;;;;-146.25;100.00;57879.81;5078863;27;45331;-73
2021/12/24 05:51:06;;;;;;;;;1.00;1.00;;;;;-146.25;100.00;57879.81;5078655;28;45465;-74
2021/12/24 05:53:32;;;;;;;;;2.00;1.00;;;;;-146.25;100.00;57879.81;5078617;27;45449;-74
2021/12/24 05:55:58;;;;;;;;;2.33;1.00;;;;;-146.25;100.00;57879.81;5078572;28;45385;-74
2021/12/24 05:58:24;;;;;;;;;4.00;2.00;;;;;-146.25;100.00;57879.81;5078770;27;45514;-77
2021/12/24 06:00:50;;;;;;;;;1.67;1.67;;;;;-146.25;100.00;57879.81;5078699;27;45503;-77
2021/12/24 06:03:17;;;;;;;;;2.00;1.33;;;;;-146.25;100.00;57879.81;5078342;28;45487;-73
2021/12/24 06:05:43;;;;;;;;;2.00;1.00;;;;;-146.25;100.00;57879.81;5078279;27;45230;-76
2021/12/24 06:08:09;;;;;;;;;0.33;0.33;;;;;-146.25;100.00;57879.81;5076799;27;45418;-77
2021/12/24 06:10:35;;;;;;;;;1.33;1.33;;;;;-146.25;100.00;57879.81;5066862;27;45567;-76
2021/12/24 06:13:03;;;;;;;;;2.00;1.67;;;;;-146.25;100.00;57879.81;5077667;27;46136;-75
2021/12/24 06:15:29;;;;;;;;;1.00;1.00;;;;;-146.25;100.00;57879.81;5077167;28;45392;-76
2021/12/24 06:17:59;;;;;;;;;2.00;1.00;;;;;-146.25;100.00;57879.81;5065808;27;45403;-76
2021/12/24 06:20:27;;;;;;;;;1.00;1.00;;;;;-146.25;100.00;57879.81;5077511;27;45349;-76
2021/12/24 06:22:53;;;;;;;;;2.33;1.67;;;;;-146.25;100.00;57879.81;5076809;28;46059;-74
2021/12/24 06:25:19;;;;;;;;;1.00;1.00;;;;;-146.25;100.00;57879.81;5077083;28;45436;-74
2021/12/24 06:27:48;;;;;;;;;1.33;1.33;;;;;-146.25;100.00;57879.81;5065872;28;45382;-76
2021/12/24 06:30:14;;;;;;;;;1.33;1.00;;;;;-146.25;100.00;57879.81;5068171;28;45520;-76
2021/12/24 06:32:40;;;;;;;;;2.67;2.00;;;;;-146.25;100.00;57879.81;5071720;28;46399;-75
2021/12/24 06:35:09;;;;;;;;;4.00;1.67;;;;;-146.25;100.00;57879.81;5066818;27;45591;-72
2021/12/24 06:37:35;;;;;;;;;2.00;1.00;;;;;-146.25;100.00;57879.81;5068276;28;45528;-76
2021/12/24 06:40:01;;;;;;;;;1.00;1.00;;;;;-146.25;100.00;57879.81;5076311;28;45402;-75
2021/12/24 06:42:26;;;;;;;;;1.00;1.00;;;;;-146.25;100.00;57879.81;5076569;28;45525;-75
2021/12/24 06:44:53;;;;;;;;;1.00;0.33;;;;;-146.25;100.00;57879.81;5076858;28;45805;-74
2021/12/24 06:47:19;;;;;;;;;2.00;1.00;;;;;-146.25;100.00;57879.81;5077086;28;46389;-72
2021/12/24 06:49:44;;;;;;;;;1.00;0.67;;;;;-146.25;100.00;57879.81;5077034;27;45463;-72
2021/12/24 06:52:10;;;;;;;;;1.00;1.00;;;;;-146.25;100.00;57879.81;5076299;28;45546;-75
2021/12/24 06:54:35;;;;;;;;;1.00;1.00;;;;;-146.25;100.00;57879.81;5077085;28;45534;-72
2021/12/24 06:57:01;;;;;;;;;2.00;1.00;;;;;-146.25;100.00;57879.81;5076865;28;45570;-72
2021/12/24 06:59:27;;;;;;;;;2.00;2.00;;;;;-146.25;100.00;57879.81;5076809;28;45552;-75
2021/12/24 07:01:53;;;;;;;;;2.33;2.00;;;;;-146.25;100.00;57879.81;5076728;28;46180;-76
2021/12/24 07:04:19;;;;;;;;;3.00;3.00;;;;;-146.25;100.00;57879.81;5065983;28;45739;-76
2021/12/24 07:06:45;;;;;;;;;3.00;3.00;;;;;-146.25;100.00;57879.81;5066033;28;45536;-76
2021/12/24 07:09:15;;;;;;;;;8.00;7.00;;;;;-146.25;100.00;57879.81;5071756;28;45515;-73
2021/12/24 07:11:41;;;;;;;;;3.00;3.00;;;;;-146.25;100.00;57879.81;5077097;27;45438;-72
2021/12/24 07:14:07;;;;;;;;;2.00;1.67;;;;;-146.25;100.00;57879.81;5076983;27;45469;-73
2021/12/24 07:16:32;;;;;;;;;2.00;2.00;;;;;-146.25;100.00;57879.81;5077585;27;45437;-73
2021/12/24 07:18:58;;;;;;;;;1.33;1.33;;;;;-146.25;100.00;57879.81;5077681;27;45355;-73
2021/12/24 07:21:24;;;;;;;;;1.33;1.33;;;;;-146.25;100.00;57879.81;5077443;27;45880;-73
2021/12/24 07:23:49;;;;;;;;;1.00;1.00;;;;;-146.25;100.00;57879.81;5077499;27;45341;-73
2021/12/24 07:26:15;;;;;;;;;1.00;1.00;;;;;-146.25;100.00;57879.81;5077234;28;45449;-76
2021/12/24 07:28:40;;;;;;;;;1.00;1.00;;;;;-146.25;100.00;57879.81;5077610;28;45422;-73
2021/12/24 07:31:06;;;;;;;;;1.67;1.67;;;;;-146.25;100.00;57879.81;5077699;28;46130;-77
2021/12/24 07:33:31;;;;;;;;;2.67;2.00;;;;;-146.25;100.00;57879.81;5077209;28;45357;-76
2021/12/24 07:35:57;;;;;;;;;2.33;2.00;;;;;-146.25;100.00;57879.81;5077525;27;45347;-76
2021/12/24 07:38:22;;;;;;;;;2.00;1.33;;;;;-146.25;100.00;57879.81;5077822;27;45214;-76
2021/12/24 07:40:48;;;;;;;;;6.33;4.00;;;;;-146.25;100.00;57879.81;5077030;28;45198;-76
2021/12/24 07:43:14;;;;;;;;;4.00;4.00;;;;;-146.25;100.00;57879.81;5077141;28;45466;-73
2021/12/24 07:45:41;;;;;;;;;2.00;2.00;;;;;-146.25;100.00;57879.81;5077348;28;45555;-76
2021/12/24 07:48:12;;;;;;;;;5.33;5.00;;;;;-146.25;100.00;57879.81;5073107;27;45675;-72
2021/12/24 07:53:09;;;;;;;;;3.00;3.00;;;;;-146.25;100.00;57879.81;5064768;27;53281;-72
2021/12/24 07:55:36;;;;;;;;;14.75;14.50;;;;;-146.25;100.00;57879.81;5073900;28;45416;-72
2021/12/24 07:58:03;;;;;;;;;3.00;3.00;;;;;-146.25;100.00;57879.81;5075079;28;45550;-71
2021/12/24 08:00:29;;;;;;;;;2.00;2.00;;;;;-146.25;100.00;57879.81;5076311;27;45452;-71
2021/12/24 08:02:56;;;;;;;;;2.00;2.00;;;;;-146.25;100.00;57879.81;5076890;28;45521;-71
2021/12/24 08:05:25;;;;;;;;;3.00;3.00;;;;;-146.25;100.00;57879.81;5079561;27;45460;-70
2021/12/24 08:07:52;;;;;;;;;1.00;1.00;;;;;-146.25;100.00;57879.81;5079521;28;45491;-72
2021/12/24 08:10:20;;;;;;;;;1.33;1.33;;;;;-146.25;100.00;57879.81;5079220;27;45584;-71
2021/12/24 08:12:46;;;;;;;;;5.00;4.00;;;;;-146.25;100.00;57879.81;5078245;27;45620;-71
2021/12/24 08:15:12;;;;;;;;;4.00;4.00;;;;;-146.25;100.00;57879.81;5078721;28;45708;-71
2021/12/24 08:17:38;;;;;;;;;3.33;3.33;;;;;-146.25;100.00;57879.81;5079127;27;45451;-71
2021/12/24 08:20:06;;;;;;;;;2.33;2.00;;;;;-146.25;100.00;57879.81;5075890;28;45987;-78
2021/12/24 08:22:32;;;;;;;;;2.00;2.00;;;;;-146.25;100.00;57879.81;5078509;28;45522;-71
2021/12/24 08:24:57;;;;;;;;;4.00;3.67;;;;;-146.25;100.00;57879.81;5078352;28;45742;-72
2021/12/24 08:27:23;;;;;;;;;10.00;8.00;;;;;-146.25;100.00;57879.81;5078354;28;45687;-71
2021/12/24 08:29:49;;;;;;;;;5.67;5.00;;;;;-146.25;100.00;57879.81;5078214;28;45440;-71
2021/12/24 08:32:15;;;;;;;;;5.00;4.00;;;;;-146.25;100.00;57879.81;5078283;28;45451;-71
2021/12/24 08:34:41;;;;;;;;;13.50;12.00;;;;;-146.25;100.00;57879.81;5078276;28;45545;-71
2021/12/24 08:37:07;;;;;;;;;15.75;13.50;;;;;-146.25;100.00;57879.81;5077989;28;45557;-71
2021/12/24 08:39:33;;;;;;;;;12.75;12.00;;;;;-146.25;100.00;57879.81;5069785;28;46393;-72
2021/12/24 08:42:00;;;;;;;;;6.33;6.00;;;;;-146.25;100.00;57879.81;5075515;28;45413;-71
2021/12/24 08:44:31;;;;;;;;;2.33;2.33;;;;;-146.25;100.00;57879.81;5077757;28;45562;-72
2021/12/24 08:47:00;;;;;;;;;3.00;3.00;;;;;-146.25;100.00;57879.81;5078270;27;45516;-74
2021/12/24 08:49:26;;;;;;;;;4.00;3.00;;;;;-146.25;100.00;57879.81;5065684;27;46239;-73
2021/12/24 08:51:53;;;;;;;;;2.67;2.00;;;;;-146.25;100.00;57879.81;5070131;28;45385;-73
2021/12/24 08:54:21;;;;;;;;;4.00;4.00;;;;;-146.25;100.00;57879.81;5077113;28;45771;-72
2021/12/24 08:56:47;;;;;;;;;1.00;1.00;;;;;-146.25;100.00;57879.81;5078068;28;45376;-72
2021/12/24 08:59:12;;;;;;;;;1.67;1.33;;;;;-146.25;100.00;57879.81;5067177;27;45385;-73
2021/12/24 09:01:42;;;;;;;;;2.00;2.00;;;;;-146.25;100.00;57879.81;5068782;28;45393;-74
2021/12/24 09:04:08;;;;;;;;;20.25;18.25;;;;;-146.25;100.00;57879.81;5068217;28;45470;-73
2021/12/24 09:06:34;;;;;;;;;4.00;3.67;;;;;-146.25;100.00;57879.81;5077635;27;46642;-74
2021/12/24 09:08:59;;;;;;;;;16.33;15.67;;;;;-146.25;100.00;57879.81;5074465;28;45636;-73
2021/12/24 09:11:26;;;;;;;;;2.00;2.00;;;;;-146.25;100.00;57879.81;5077526;28;45775;-73
2021/12/24 09:13:51;;;;;;;;;8.67;6.67;;;;;-146.25;100.00;57879.81;5063581;28;45481;-73
2021/12/24 09:16:17;;;;;;;;;2.33;2.00;;;;;-146.25;100.00;57879.81;5056779;28;45374;-73
2021/12/24 09:18:44;;;;;;;;;3.00;3.00;;;;;-146.25;100.00;57879.81;5057890;28;46238;-73
2021/12/24 09:21:15;;;;;;;;;5.00;4.00;;;;;-146.25;100.00;57879.81;5058012;28;45450;-74
2021/12/24 09:23:46;;;;;;;;;3.00;3.00;;;;;-146.25;100.00;57879.81;5060156;28;45439;-73
2021/12/24 09:26:11;;;;;;;;;7.00;6.00;;;;;-146.25;100.00;57879.81;5061604;28;45594;-74
2021/12/24 09:28:37;;;;;;;;;3.00;3.00;;;;;-146.25;100.00;57879.81;5068577;28;45414;-76
2021/12/24 09:31:03;;;;;;;;;2.00;2.00;;;;;-146.25;100.00;57879.81;5079106;27;45410;-77
2021/12/24 09:33:28;;;;;;;;;3.00;2.33;;;;;-146.25;100.00;57879.81;5077858;28;45421;-78
2021/12/24 09:35:54;;;;;;;;;3.67;3.00;;;;;-146.25;100.00;57879.81;5066747;28;45604;-78
2021/12/24 09:38:20;;;;;;;;;2.33;1.33;;;;;-146.25;100.00;57879.81;5071140;27;46569;-79
2021/12/24 09:40:45;;;;;;;;;2.00;2.00;;;;;-146.25;100.00;57879.81;5079825;28;45350;-80
2021/12/24 09:43:11;;;;;;;;;5.00;4.33;;;;;-146.25;100.00;57879.81;5077529;28;45665;-77
2021/12/24 09:45:36;;;;;;;;;6.33;6.33;;;;;-146.25;100.00;57879.81;5067377;27;45424;-78
2021/12/24 09:48:02;;;;;;;;;0.67;0.67;;;;;-146.25;100.00;57879.81;5073297;28;45567;-78
2021/12/24 09:50:28;;;;;;;;;2.00;1.33;;;;;-146.25;100.00;57879.81;5073326;28;45950;-79
2021/12/24 09:52:56;;;;;;;;;2.33;2.00;;;;;-146.25;100.00;57879.81;5080366;27;45497;-78
2021/12/24 09:55:25;;;;;;;;;1.33;1.33;;;;;-146.25;100.00;57879.81;5079034;28;45365;-78
2021/12/24 09:57:51;;;;;;;;;6.67;5.00;;;;;-146.25;100.00;57879.81;5079005;27;46373;-78
2021/12/24 10:00:20;;;;;;;;;5.00;4.67;;;;;-146.25;100.00;57879.81;5079155;28;45509;-78
2021/12/24 10:02:49;;;;;;;;;2.33;2.33;;;;;-146.25;100.00;57879.81;5079858;27;45282;-79
2021/12/24 10:05:26;;;;;;;;;2.00;2.00;;;;;-146.25;100.00;57879.81;5081096;28;45218;-78
2021/12/24 10:07:58;;;;;;;;;2.33;2.00;;;;;-146.25;100.00;57879.81;5081316;27;45211;-78
2021/12/24 10:10:25;;;;;;;;;2.00;1.33;;;;;-146.25;100.00;57879.81;5078077;27;45436;-78
2021/12/24 10:12:52;;;;;;;;;3.00;2.00;;;;;-146.25;100.00;57879.81;5078251;28;45218;-78
2021/12/24 10:15:18;;;;;;;;;2.67;2.00;;;;;-146.25;100.00;57879.81;5078238;27;45357;-75
2021/12/24 10:17:45;;;;;;;;;3.00;2.00;;;;;-146.25;100.00;57879.81;5078469;27;45438;-78
2021/12/24 10:20:16;;;;;;;;;0.00;0.00;;;;;-146.25;100.00;57879.81;5078419;27;45486;-79
2021/12/24 10:22:44;;;;;;;;;2.33;2.00;;;;;-146.25;100.00;57879.81;5078406;28;45318;-79
2021/12/24 10:25:12;;;;;;;;;1.00;1.00;;;;;-146.25;100.00;57879.81;5077973;28;45274;-78
2021/12/24 10:27:39;;;;;;;;;2.00;2.00;;;;;-146.25;100.00;57879.81;5077584;27;45440;-78
2021/12/24 10:30:26;;;;;;;;;1.00;1.00;;;;;-146.25;100.00;57879.81;5077743;27;45302;-78
2021/12/24 10:32:55;;;;;;;;;1.33;1.33;;;;;-146.25;100.00;57879.81;5077825;27;45444;-78
2021/12/24 10:35:30;;;;;;;;;2.00;2.00;;;;;-146.25;100.00;57879.81;5078054;27;45315;-78
2021/12/24 10:38:16;;;;;;;;;2.00;2.00;;;;;-146.25;100.00;57879.81;5077697;28;46336;-78
2021/12/24 10:40:58;;;;;;;;;2.00;2.00;;;;;-146.25;100.00;57879.81;5077790;27;45352;-79
2021/12/24 10:43:30;;;;;;;;;1.00;1.00;;;;;-146.25;100.00;57879.81;5078073;27;45332;-78
2021/12/24 10:46:15;;;;;;;;;4.00;3.00;;;;;-146.25;100.00;57879.81;5078257;27;45377;-78
2021/12/24 10:48:59;;;;;;;;;1.67;1.00;;;;;-146.25;100.00;57879.81;5077671;27;46141;-78
2021/12/24 10:51:53;;;;;;;;;2.67;2.67;;;;;-146.25;100.00;57879.81;5077918;27;45807;-78
2021/12/24 10:54:10;;;;;;;;;3.33;2.33;;;;;-146.25;100.00;57879.81;5077764;27;45450;-79
2021/12/24 10:56:35;;;;;;;;;2.00;1.00;;;;;-146.25;100.00;57879.81;5077797;28;45561;-78
2021/12/24 10:59:02;;;;;;;;;3.00;2.00;;;;;-146.25;100.00;57879.81;5077759;27;45481;-78
2021/12/24 11:01:27;;;;;;;;;1.33;0.67;;;;;-146.25;100.00;57879.81;5077728;27;45428;-78
2021/12/24 11:03:53;;;;;;;;;2.00;1.67;;;;;-146.25;100.00;57879.81;5077842;28;45306;-73
2021/12/24 11:06:21;;;;;;;;;1.67;1.67;;;;;-146.25;100.00;57879.81;5078273;27;45308;-78
2021/12/24 11:08:54;;;;;;;;;2.00;1.33;;;;;-146.25;100.00;57879.81;5077890;28;45409;-78
2021/12/24 11:11:20;;;;;;;;;1.00;1.00;;;;;-146.25;100.00;57879.81;5077766;27;45381;-78
2021/12/24 11:13:47;;;;;;;;;3.00;3.00;;;;;-146.25;100.00;57879.81;5077628;27;45421;-78
2021/12/24 11:16:18;;;;;;;;;1.67;1.67;;;;;-146.25;100.00;57879.81;5077821;28;45456;-79
2021/12/24 11:18:53;;;;;;;;;0.67;0.67;;;;;-146.25;100.00;57879.81;5077273;28;45316;-78
2021/12/24 11:21:27;;;;;;;;;4.00;4.00;;;;;-146.25;100.00;57879.81;5077698;27;45346;-79
2021/12/24 11:23:54;;;;;;;;;1.00;1.00;;;;;-146.25;100.00;57879.81;5077520;27;45483;-79
2021/12/24 11:26:25;;;;;;;;;2.67;2.00;;;;;-146.25;100.00;57879.81;5077697;27;45529;-79
2021/12/24 11:28:50;;;;;;;;;1.67;1.67;;;;;-146.25;100.00;57879.81;5077375;27;45558;-78
2021/12/24 11:31:19;;;;;;;;;2.00;1.33;;;;;-146.25;100.00;57879.81;5077112;27;45317;-79
2021/12/24 11:33:46;;;;;;;;;1.67;1.33;;;;;-146.25;100.00;57879.81;5077320;27;45341;-78
2021/12/24 11:36:16;;;;;;;;;1.67;1.67;;;;;-146.25;100.00;57879.81;5077201;27;45401;-75
2021/12/24 11:38:55;;;;;;;;;3.67;3.67;;;;;-146.25;100.00;57879.81;5080828;27;46056;-74
2021/12/24 11:41:25;;;;;;;;;2.67;1.67;;;;;-146.25;100.00;57879.81;5081007;27;45421;-74
2021/12/24 11:43:52;;;;;;;;;1.67;1.67;;;;;-146.25;100.00;57879.81;5081491;27;45273;-79
2021/12/24 11:46:20;;;;;;;;;3.33;2.33;;;;;-146.25;100.00;57879.81;5080959;27;45280;-74
2021/12/24 11:48:48;;;;;;;;;1.33;1.33;;;;;-146.25;100.00;57879.81;5080405;27;45490;-73
2021/12/24 11:51:20;;;;;;;;;0.67;0.67;;;;;-146.25;100.00;57879.81;5080444;27;45427;-78
2021/12/24 11:53:47;;;;;;;;;1.00;1.00;;;;;-146.25;100.00;57879.81;5080764;27;45369;-79
2021/12/24 11:56:16;;;;;;;;;0.67;0.67;;;;;-146.25;100.00;57879.81;5080737;27;45433;-78
2021/12/24 11:58:45;;;;;;;;;0.67;0.67;;;;;-146.25;100.00;57879.81;5080419;27;46564;-79
2021/12/24 12:01:15;;;;;;;;;2.00;1.00;;;;;-146.25;100.00;57879.81;5080165;27;45321;-74
2021/12/24 12:03:55;;;;;;;;;0.00;0.00;;;;;-146.25;100.00;57879.81;5080393;28;45420;-79
2021/12/24 12:06:20;;;;;;;;;1.33;0.67;;;;;-146.25;100.00;57879.81;5080656;28;45807;-79
2021/12/24 12:08:48;;;;;;;;;4.67;4.00;;;;;-146.25;100.00;57879.81;5080118;28;46005;-79
2021/12/24 12:11:13;;;;;;;;;3.67;3.67;;;;;-146.25;100.00;57879.81;5080118;27;45434;-78
2021/12/24 12:13:55;;;;;;;;;0.33;0.33;;;;;-146.25;100.00;57879.81;5080157;28;45650;-79
2021/12/24 12:16:27;;;;;;;;;2.00;2.00;;;;;-146.25;100.00;57879.81;5080763;27;45368;-74
2021/12/24 12:19:15;;;;;;;;;1.00;0.67;;;;;-146.25;100.00;57879.81;5080335;28;46167;-79
2021/12/24 12:22:10;;;;;;;;;0.33;0.33;;;;;-146.25;100.00;57879.81;5079984;27;45568;-79
2021/12/24 12:27:26;;;;;;;;;0.67;0.67;;;;;-146.25;100.00;57879.81;5079832;27;45393;-76
2021/12/24 12:29:51;;;;;;;;;1.67;1.67;;;;;-146.25;100.00;57879.81;5079908;28;46250;-78
2021/12/24 12:32:17;;;;;;;;;0.67;0.67;;;;;-146.25;100.00;57879.81;5079443;27;45335;-78
2021/12/24 12:34:42;;;;;;;;;1.67;1.67;;;;;-146.25;100.00;57879.81;5078919;28;45417;-78
2021/12/24 12:37:19;;;;;;;;;2.00;2.00;;;;;-146.25;100.00;57879.81;5078847;28;45771;-78
2021/12/24 12:39:46;;;;;;;;;0.50;0.50;;;;;-146.25;100.00;57879.81;5079417;28;45362;-78
2021/12/24 12:42:17;;;;;;;;;0.67;0.67;;;;;-146.25;100.00;57879.81;5079030;27;45514;-75
2021/12/24 12:44:46;;;;;;;;;0.67;0.00;;;;;-146.25;100.00;57879.81;5079569;27;45495;-78
2021/12/24 12:47:22;;;;;;;;;1.67;0.67;;;;;-146.25;100.00;57879.81;5079441;27;45592;-74
2021/12/24 12:49:51;;;;;;;;;4.33;4.00;;;;;-146.25;100.00;57879.81;5078754;27;46129;-79
2021/12/24 12:52:31;;;;;;;;;1.67;1.67;;;;;-146.25;100.00;57879.81;5079494;27;45471;-78
2021/12/24 12:54:58;;;;;;;;;6.00;5.00;;;;;-146.25;100.00;57879.81;5079309;27;45542;-75